createdAt,value
2023-01-28T00:01:45.809Z,5.07
2023-01-28T00:04:12.449Z,4.35
2023-01-28T00:06:39.189Z,6.10
2023-01-28T00:09:05.771Z,5.57
2023-01-28T00:11:32.386Z,4.68
2023-01-28T00:13:59.413Z,5.55
2023-01-28T00:16:27.409Z,4.97
2023-01-28T00:18:54.858Z,5.45
2023-01-28T00:21:21.507Z,5.60
2023-01-28T00:23:52.298Z,6.13
2023-01-28T00:26:19.015Z,5.28
2023-01-28T00:28:45.993Z,4.68
2023-01-28T00:31:17.164Z,5.20
2023-01-28T00:33:48.595Z,5.45
2023-01-28T00:36:16.123Z,5.72
2023-01-28T00:38:43.048Z,5.28
2023-01-28T00:41:17.685Z,6.22
2023-01-28T00:43:45.319Z,7.10
2023-01-28T00:46:13.948Z,6.10
2023-01-28T00:48:42.041Z,6.18
2023-01-28T00:51:09.692Z,6.40
2023-01-28T00:53:37.341Z,5.75
2023-01-28T00:56:05.747Z,5.40
2023-01-28T00:58:33.204Z,5.40
2023-01-28T01:01:20.057Z,5.68
2023-01-28T01:03:47.029Z,5.97
2023-01-28T01:06:15.431Z,6.75
2023-01-28T01:08:43.033Z,6.78
2023-01-28T01:11:12.222Z,6.15
2023-01-28T01:13:39.157Z,6.47
2023-01-28T01:16:08.920Z,6.57
2023-01-28T01:18:36.237Z,6.05
2023-01-28T01:21:03.497Z,6.15
2023-01-28T01:23:31.403Z,5.93
2023-01-28T01:25:58.950Z,5.70
2023-01-28T01:28:25.501Z,5.95
2023-01-28T01:31:04.077Z,6.38
2023-01-28T01:33:30.841Z,6.93
2023-01-28T01:35:59.123Z,6.47
2023-01-28T01:38:27.640Z,5.85
2023-01-28T01:41:00.914Z,6.00
2023-01-28T01:44:00.036Z,5.45
2023-01-28T01:46:38.080Z,6.13
2023-01-28T01:49:19.925Z,5.53
2023-01-28T01:51:51.307Z,6.10
2023-01-28T01:54:20.839Z,6.05
2023-01-28T01:56:50.247Z,6.80
2023-01-28T01:59:24.063Z,7.35
2023-01-28T02:01:51.157Z,7.60
2023-01-28T02:04:28.826Z,6.70
2023-01-28T02:06:56.832Z,6.50
2023-01-28T02:09:32.330Z,5.25
2023-01-28T02:12:17.172Z,6.80
2023-01-28T02:14:57.188Z,6.50
2023-01-28T02:17:25.118Z,6.57
2023-01-28T02:19:57.409Z,6.65
2023-01-28T02:22:36.082Z,7.18
2023-01-28T02:25:26.867Z,6.22
2023-01-28T02:28:18.839Z,7.10
2023-01-28T02:31:20.843Z,6.05
2023-01-28T02:34:00.095Z,7.13
2023-01-28T02:36:39.576Z,6.97
2023-01-28T02:39:12.349Z,6.60
2023-01-28T02:42:13.691Z,6.60
2023-01-28T02:44:40.503Z,6.22
2023-01-28T02:47:33.380Z,6.97
2023-01-28T02:50:06.071Z,6.85
2023-01-28T02:53:03.570Z,6.78
2023-01-28T02:55:38.406Z,6.93
2023-01-28T02:58:22.869Z,8.10
2023-01-28T03:01:02.147Z,6.20
2023-01-28T03:03:33.404Z,5.80
2023-01-28T03:06:07.028Z,7.05
2023-01-28T03:08:57.827Z,7.38
2023-01-28T03:11:44.597Z,6.97
2023-01-28T03:14:30.344Z,6.65
2023-01-28T03:17:19.721Z,6.15
2023-01-28T03:20:05.376Z,6.78
2023-01-28T03:22:57.085Z,6.60
2023-01-28T03:25:45.805Z,7.20
2023-01-28T03:28:37.536Z,7.07
2023-01-28T03:31:33.081Z,7.32
2023-01-28T03:34:21.489Z,5.53
2023-01-28T03:36:58.373Z,6.75
2023-01-28T03:39:37.798Z,6.40
2023-01-28T03:42:14.788Z,6.10
2023-01-28T03:45:01.722Z,6.45
2023-01-28T03:47:30.749Z,6.68
2023-01-28T03:49:59.865Z,7.13
2023-01-28T03:52:31.952Z,5.85
2023-01-28T03:55:14.455Z,6.03
2023-01-28T03:57:41.987Z,6.38
2023-01-28T04:00:10.927Z,6.97
2023-01-28T04:02:43.251Z,6.95
2023-01-28T04:05:15.933Z,7.85
2023-01-28T04:07:46.779Z,6.68
2023-01-28T04:10:18.803Z,7.43
2023-01-28T04:12:54.344Z,6.70
2023-01-28T04:15:21.067Z,6.05
2023-01-28T04:17:49.304Z,6.03
2023-01-28T04:20:23.948Z,5.55
2023-01-28T04:22:50.569Z,8.32
2023-01-28T04:25:18.909Z,6.45
2023-01-28T04:27:45.709Z,7.20
2023-01-28T04:30:24.783Z,7.65
2023-01-28T04:33:06.329Z,8.07
2023-01-28T04:35:52.082Z,6.22
2023-01-28T04:38:32.570Z,6.72
2023-01-28T04:41:19.482Z,6.65
2023-01-28T04:43:46.796Z,5.43
2023-01-28T04:46:32.185Z,6.25
2023-01-28T04:49:04.288Z,5.80
2023-01-28T04:51:49.546Z,7.20
2023-01-28T04:54:19.061Z,6.00
2023-01-28T04:56:45.822Z,5.80
2023-01-28T04:59:12.416Z,7.65
2023-01-28T05:01:39.170Z,6.35
2023-01-28T05:04:06.634Z,6.75
2023-01-28T05:06:36.826Z,6.63
2023-01-28T05:09:10.170Z,6.82
2023-01-28T05:11:39.053Z,7.28
2023-01-28T05:14:06.312Z,6.30
2023-01-28T05:16:43.253Z,6.75
2023-01-28T05:19:10.939Z,5.45
2023-01-28T05:21:41.098Z,5.80
2023-01-28T05:24:17.672Z,5.75
2023-01-28T05:26:44.757Z,5.68
2023-01-28T05:29:11.638Z,8.05
2023-01-28T05:31:39.065Z,6.00
2023-01-28T05:34:05.618Z,6.88
2023-01-28T05:36:32.198Z,6.50
2023-01-28T05:39:02.042Z,5.82
2023-01-28T05:41:28.850Z,5.55
2023-01-28T05:43:59.907Z,7.07
2023-01-28T05:46:33.617Z,5.22
2023-01-28T05:49:13.366Z,6.07
2023-01-28T05:52:09.229Z,5.60
2023-01-28T05:54:35.952Z,6.05
2023-01-28T05:57:02.559Z,6.32
2023-01-28T05:59:29.517Z,6.32
2023-01-28T06:01:57.862Z,7.13
2023-01-28T06:04:24.510Z,6.18
2023-01-28T06:06:52.200Z,6.20
2023-01-28T06:09:18.975Z,5.93
2023-01-28T06:11:46.303Z,5.43
2023-01-28T06:14:13.941Z,5.90
2023-01-28T06:17:03.641Z,5.82
2023-01-28T06:19:44.227Z,6.03
2023-01-28T06:22:11.186Z,5.22
2023-01-28T06:24:37.816Z,5.93
2023-01-28T06:27:05.526Z,5.70
2023-01-28T06:29:32.154Z,5.50
2023-01-28T06:31:58.938Z,5.65
2023-01-28T06:34:26.955Z,5.65
2023-01-28T06:36:54.127Z,5.50
2023-01-28T06:39:22.248Z,6.60
2023-01-28T06:41:49.833Z,5.97
2023-01-28T06:44:16.676Z,6.20
2023-01-28T06:46:43.308Z,6.15
2023-01-28T06:49:11.440Z,6.43
2023-01-28T06:51:37.957Z,7.20
2023-01-28T06:54:04.804Z,5.25
2023-01-28T06:56:31.389Z,5.35
2023-01-28T06:58:58.062Z,5.78
2023-01-28T07:01:24.847Z,5.90
2023-01-28T07:03:54.237Z,6.97
2023-01-28T07:06:20.779Z,5.57
2023-01-28T07:08:47.561Z,4.70
2023-01-28T07:11:14.188Z,5.60
2023-01-28T07:13:40.922Z,5.70
2023-01-28T07:16:08.037Z,7.10
2023-01-28T07:18:35.050Z,5.53
2023-01-28T07:21:01.869Z,5.85
2023-01-28T07:23:29.251Z,7.05
2023-01-28T07:25:55.850Z,7.55
2023-01-28T07:28:22.478Z,5.50
2023-01-28T07:30:53.277Z,5.63
2023-01-28T07:33:20.548Z,5.35
2023-01-28T07:35:49.926Z,5.68
2023-01-28T07:38:16.532Z,5.30
2023-01-28T07:40:43.099Z,6.40
2023-01-28T07:43:10.411Z,5.80
2023-01-28T07:45:38.975Z,5.82
2023-01-28T07:48:08.280Z,6.57
2023-01-28T07:50:36.883Z,6.15
2023-01-28T07:53:09.319Z,6.75
2023-01-28T07:55:36.270Z,5.78
2023-01-28T07:58:04.986Z,5.70
2023-01-28T08:00:34.975Z,5.47
2023-01-28T08:03:06.009Z,5.38
2023-01-28T08:05:50.032Z,5.97
2023-01-28T08:08:17.506Z,6.70
2023-01-28T08:10:44.407Z,5.50
2023-01-28T08:13:12.761Z,5.40
2023-01-28T08:15:39.809Z,5.57
2023-01-28T08:18:13.177Z,5.55
2023-01-28T08:20:40.950Z,5.28
2023-01-28T08:23:11.314Z,6.10
2023-01-28T08:25:38.054Z,5.85
2023-01-28T08:28:05.480Z,5.53
2023-01-28T08:30:32.435Z,5.70
2023-01-28T08:33:00.097Z,4.95
2023-01-28T08:35:27.795Z,5.55
2023-01-28T08:37:54.969Z,5.60
2023-01-28T08:40:22.147Z,5.18
2023-01-28T08:42:50.283Z,6.68
2023-01-28T08:45:17.736Z,6.55
2023-01-28T08:47:52.733Z,5.55
2023-01-28T08:50:21.206Z,6.05
2023-01-28T08:52:56.691Z,5.45
2023-01-28T08:55:23.707Z,5.25
2023-01-28T08:57:50.276Z,5.28
2023-01-28T09:00:17.481Z,5.22
2023-01-28T09:02:44.532Z,5.47
2023-01-28T09:05:11.584Z,5.47
2023-01-28T09:07:39.117Z,5.70
2023-01-28T09:10:09.246Z,5.40
2023-01-28T09:12:36.589Z,5.60
2023-01-28T09:15:03.799Z,5.60
2023-01-28T09:17:30.389Z,5.72
2023-01-28T09:19:56.988Z,5.07
2023-01-28T09:22:23.656Z,4.78
2023-01-28T09:24:50.203Z,5.70
2023-01-28T09:27:16.897Z,6.55
2023-01-28T09:29:43.580Z,5.75
2023-01-28T09:32:10.208Z,5.32
2023-01-28T09:34:37.651Z,6.35
2023-01-28T09:37:04.214Z,5.43
2023-01-28T09:39:31.078Z,5.97
2023-01-28T09:42:25.033Z,5.53
2023-01-28T09:45:06.898Z,4.38
2023-01-28T09:47:56.333Z,5.22
2023-01-28T09:50:43.861Z,5.38
2023-01-28T09:53:20.582Z,4.72
2023-01-28T09:55:50.568Z,5.13
2023-01-28T09:58:18.476Z,4.88
2023-01-28T10:00:59.100Z,5.55
2023-01-28T10:04:13.131Z,4.90
2023-01-28T10:06:54.852Z,4.78
2023-01-28T10:09:21.463Z,6.22
2023-01-28T10:12:25.094Z,5.75
2023-01-28T10:14:54.650Z,4.57
2023-01-28T10:17:31.686Z,4.97
2023-01-28T10:20:16.080Z,6.13
2023-01-28T10:22:52.900Z,5.05
2023-01-28T10:25:22.183Z,5.85
2023-01-28T10:27:50.569Z,5.47
2023-01-28T10:30:25.641Z,6.57
2023-01-28T10:33:27.585Z,4.85
2023-01-28T10:35:56.219Z,5.05
2023-01-28T10:38:25.880Z,5.20
2023-01-28T10:40:52.982Z,6.03
2023-01-28T10:43:23.888Z,5.80
2023-01-28T10:46:03.164Z,4.88
2023-01-28T10:48:35.157Z,5.35
2023-01-28T10:51:05.639Z,4.50
2023-01-28T10:53:35.709Z,4.50
2023-01-28T10:56:03.647Z,4.95
2023-01-28T10:58:37.118Z,4.57
2023-01-28T11:01:07.243Z,4.55
2023-01-28T11:03:37.172Z,4.55
2023-01-28T11:06:04.060Z,3.88
2023-01-28T11:08:31.496Z,4.10
2023-01-28T11:10:58.758Z,3.53
2023-01-28T11:13:26.666Z,3.58
2023-01-28T11:16:00.765Z,4.38
2023-01-28T11:18:47.487Z,3.90
2023-01-28T11:21:21.810Z,5.00
2023-01-28T11:23:59.084Z,4.53
2023-01-28T11:26:38.372Z,3.90
2023-01-28T11:29:06.128Z,4.20
2023-01-28T11:31:43.018Z,5.18
2023-01-28T11:34:17.431Z,4.72
2023-01-28T11:36:52.460Z,4.68
2023-01-28T11:39:28.583Z,4.25
2023-01-28T11:42:03.124Z,5.97
2023-01-28T11:44:30.445Z,5.10
2023-01-28T11:47:25.124Z,4.85
2023-01-28T11:50:02.061Z,4.47
2023-01-28T11:57:13.377Z,4.10
2023-01-28T12:00:06.684Z,4.53
2023-01-28T12:02:48.860Z,4.25
2023-01-28T12:08:17.182Z,4.80
2023-01-28T12:10:55.935Z,4.50
2023-01-28T12:13:33.948Z,5.15
2023-01-28T12:16:03.442Z,4.05
2023-01-28T12:18:40.408Z,4.47
2023-01-28T12:21:41.513Z,4.32
2023-01-28T12:24:46.730Z,4.03
2023-01-28T12:27:28.153Z,4.70
2023-01-28T12:30:31.520Z,4.90
2023-01-28T12:33:07.364Z,4.90
2023-01-28T12:35:51.179Z,5.40
2023-01-28T12:38:23.676Z,4.53
2023-01-28T12:40:57.673Z,5.07
2023-01-28T12:44:10.222Z,4.30
2023-01-28T12:47:05.960Z,4.45
2023-01-28T12:49:38.472Z,5.45
2023-01-28T12:52:15.945Z,4.50
2023-01-28T12:54:57.910Z,5.40
2023-01-28T13:00:03.857Z,4.38
2023-01-28T13:02:38.168Z,5.57
2023-01-28T13:05:17.286Z,4.95
2023-01-28T13:08:13.776Z,5.13
2023-01-28T13:10:45.533Z,5.22
2023-01-28T13:16:01.820Z,4.70
2023-01-28T13:18:48.673Z,4.82
2023-01-28T13:21:30.588Z,4.60
2023-01-28T13:24:01.822Z,4.75
2023-01-28T13:26:46.613Z,4.53
2023-01-28T13:29:25.420Z,4.28
2023-01-28T13:31:54.888Z,4.28
2023-01-28T13:34:43.689Z,4.53
2023-01-28T13:37:27.356Z,4.82
2023-01-28T13:40:04.223Z,4.47
2023-01-28T13:42:31.708Z,5.20
2023-01-28T13:45:34.066Z,5.13
2023-01-28T13:48:18.815Z,4.65
2023-01-28T13:50:45.856Z,4.10
2023-01-28T13:53:27.639Z,4.32
2023-01-28T13:55:58.494Z,3.92
2023-01-28T13:58:36.359Z,4.37
2023-01-28T14:01:26.205Z,4.43
2023-01-28T14:04:30.460Z,4.03
2023-01-28T14:07:18.930Z,4.70
2023-01-28T14:10:04.289Z,3.53
2023-01-28T14:12:47.139Z,4.57
2023-01-28T14:15:56.603Z,4.40
2023-01-28T14:18:29.210Z,3.55
2023-01-28T14:21:00.571Z,4.22
2023-01-28T14:23:31.070Z,4.18
2023-01-28T14:26:09.891Z,4.72
2023-01-28T14:28:45.692Z,4.38
2023-01-28T14:31:22.279Z,4.30
2023-01-28T14:33:49.067Z,3.65
2023-01-28T14:36:18.380Z,3.88
2023-01-28T14:38:46.582Z,4.00
2023-01-28T14:41:23.696Z,4.43
2023-01-28T14:43:51.054Z,4.50
2023-01-28T14:46:30.791Z,4.25
2023-01-28T14:49:16.309Z,3.40
2023-01-28T14:51:51.735Z,5.07
2023-01-28T14:54:50.435Z,4.53
2023-01-28T14:57:23.125Z,3.60
2023-01-28T15:00:01.469Z,4.15
2023-01-28T15:02:30.635Z,4.65
2023-01-28T15:05:15.329Z,4.32
2023-01-28T15:07:46.842Z,4.30
2023-01-28T15:10:25.667Z,4.28
2023-01-28T15:13:15.332Z,3.38
2023-01-28T15:15:58.041Z,3.88
2023-01-28T15:18:42.821Z,4.15
2023-01-28T15:21:10.230Z,3.90
2023-01-28T15:23:39.624Z,3.63
2023-01-28T15:26:46.337Z,4.10
2023-01-28T15:29:30.623Z,4.22
2023-01-28T15:31:57.339Z,4.50
2023-01-28T15:34:32.832Z,4.55
2023-01-28T15:37:00.704Z,4.70
2023-01-28T15:39:29.544Z,3.95
2023-01-28T15:42:03.899Z,4.32
2023-01-28T15:44:34.558Z,4.50
2023-01-28T15:47:04.489Z,5.10
2023-01-28T15:49:45.252Z,4.43
2023-01-28T15:52:12.675Z,4.30
2023-01-28T15:54:42.755Z,4.18
2023-01-28T15:57:20.653Z,4.22
2023-01-28T15:59:51.072Z,4.50
2023-01-28T16:02:19.596Z,5.05
2023-01-28T16:04:57.075Z,4.97
2023-01-28T16:07:25.850Z,4.75
2023-01-28T16:09:57.728Z,4.53
2023-01-28T16:15:02.387Z,4.75
2023-01-28T16:17:39.669Z,4.40
2023-01-28T16:20:09.940Z,4.25
2023-01-28T16:22:39.923Z,4.38
2023-01-28T16:25:40.625Z,4.47
2023-01-28T16:28:19.027Z,4.07
2023-01-28T16:30:45.719Z,4.25
2023-01-28T16:33:21.162Z,4.57
2023-01-28T16:36:05.476Z,4.07
2023-01-28T16:38:34.159Z,4.28
2023-01-28T16:41:00.726Z,4.10
2023-01-28T16:43:27.247Z,4.00
2023-01-28T16:45:53.827Z,4.50
2023-01-28T16:48:20.572Z,4.47
2023-01-28T16:50:47.202Z,3.58
2023-01-28T16:53:23.763Z,3.80
2023-01-28T16:55:51.354Z,4.25
2023-01-28T16:58:23.759Z,5.03
2023-01-28T17:00:50.380Z,3.63
2023-01-28T17:03:17.014Z,5.22
2023-01-28T17:05:43.601Z,4.38
2023-01-28T17:08:13.096Z,4.43
2023-01-28T17:10:39.752Z,4.75
2023-01-28T17:13:06.316Z,4.38
2023-01-28T17:15:35.372Z,4.55
2023-01-28T17:18:01.954Z,5.50
2023-01-28T17:20:28.591Z,5.78
2023-01-28T17:22:55.201Z,5.05
2023-01-28T17:25:21.728Z,5.57
2023-01-28T17:27:49.955Z,5.35
2023-01-28T17:30:19.643Z,4.53
2023-01-28T17:32:46.228Z,4.60
2023-01-28T17:35:12.845Z,3.95
2023-01-28T17:37:39.443Z,5.15
2023-01-28T17:40:06.755Z,5.20
2023-01-28T17:42:33.349Z,4.47
2023-01-28T17:45:03.108Z,5.05
2023-01-28T17:47:30.995Z,5.35
2023-01-28T17:49:57.953Z,4.65
2023-01-28T17:52:24.617Z,5.72
2023-01-28T17:54:51.217Z,5.05
2023-01-28T17:57:18.002Z,6.10
2023-01-28T17:59:46.952Z,5.95
2023-01-28T18:02:14.592Z,4.97
2023-01-28T18:04:42.295Z,5.15
2023-01-28T18:07:12.816Z,5.53
2023-01-28T18:09:40.812Z,5.05
2023-01-28T18:12:09.977Z,5.50
2023-01-28T18:14:38.245Z,3.80
2023-01-28T18:17:06.007Z,4.75
2023-01-28T18:19:32.791Z,4.65
2023-01-28T18:21:59.487Z,4.00
2023-01-28T18:24:28.926Z,4.22
2023-01-28T18:26:59.739Z,4.70
2023-01-28T18:29:27.843Z,5.65
2023-01-28T18:31:55.724Z,5.30
2023-01-28T18:34:24.475Z,4.95
2023-01-28T18:36:51.190Z,4.38
2023-01-28T18:39:19.275Z,4.53
2023-01-28T18:41:46.145Z,4.60
2023-01-28T18:44:15.758Z,4.93
2023-01-28T18:46:42.584Z,4.65
2023-01-28T18:49:09.567Z,4.25
2023-01-28T18:52:07.899Z,4.55
2023-01-28T18:54:34.634Z,4.80
2023-01-28T18:57:01.274Z,4.28
2023-01-28T18:59:27.847Z,5.28
2023-01-28T19:01:54.496Z,4.53
2023-01-28T19:04:21.151Z,4.65
2023-01-28T19:06:48.155Z,5.40
2023-01-28T19:09:16.285Z,4.57
2023-01-28T19:11:44.719Z,5.18
2023-01-28T19:14:14.098Z,4.93
2023-01-28T19:16:40.757Z,4.80
2023-01-28T19:19:07.395Z,5.00
2023-01-28T19:21:34.243Z,5.32
2023-01-28T19:24:06.457Z,5.45
2023-01-28T19:26:33.380Z,5.25
2023-01-28T19:29:00.047Z,5.28
2023-01-28T19:31:27.379Z,5.25
2023-01-28T19:33:59.325Z,6.20
2023-01-28T19:38:58.872Z,5.47
2023-01-28T19:41:26.296Z,5.72
2023-01-28T19:43:52.899Z,5.28
2023-01-28T19:46:19.494Z,5.22
2023-01-28T19:48:46.371Z,6.22
2023-01-28T19:51:15.011Z,5.47
2023-01-28T19:53:43.215Z,5.80
2023-01-28T19:56:14.858Z,5.38
2023-01-28T19:58:43.409Z,5.57
2023-01-28T20:01:19.295Z,6.45
2023-01-28T20:03:46.002Z,6.10
2023-01-28T20:06:17.347Z,5.65
2023-01-28T20:08:44.914Z,6.60
2023-01-28T20:11:14.492Z,6.35
2023-01-28T20:13:46.096Z,6.13
2023-01-28T20:16:24.618Z,6.05
2023-01-28T20:18:59.513Z,5.60
2023-01-28T20:21:26.828Z,6.60
2023-01-28T20:23:54.533Z,5.45
2023-01-28T20:26:24.472Z,4.85
2023-01-28T20:28:51.578Z,6.45
2023-01-28T20:31:21.316Z,6.40
2023-01-28T20:33:48.192Z,6.80
2023-01-28T20:36:15.110Z,4.18
2023-01-28T20:38:43.812Z,6.10
2023-01-28T20:41:15.977Z,6.03
2023-01-28T20:43:44.160Z,5.72
2023-01-28T20:46:13.989Z,5.57
2023-01-28T20:48:41.364Z,5.57
2023-01-28T20:51:22.352Z,5.25
2023-01-28T20:53:49.700Z,4.90
2023-01-28T20:56:19.249Z,4.30
2023-01-28T20:58:48.144Z,6.20
2023-01-28T21:01:20.702Z,4.50
2023-01-28T21:03:48.183Z,5.68
2023-01-28T21:06:15.333Z,5.28
2023-01-28T21:08:43.896Z,5.85
2023-01-28T21:11:11.672Z,5.07
2023-01-28T21:13:38.466Z,5.95
2023-01-28T21:16:05.912Z,5.68
2023-01-28T21:18:32.645Z,5.40
2023-01-28T21:21:08.111Z,5.85
2023-01-28T21:23:34.725Z,5.65
2023-01-28T21:26:03.348Z,6.07
2023-01-28T21:28:30.169Z,6.80
2023-01-28T21:31:13.966Z,5.35
2023-01-28T21:33:40.546Z,4.80
2023-01-28T21:36:12.749Z,5.95
2023-01-28T21:38:39.493Z,5.47
2023-01-28T21:41:07.035Z,5.70
2023-01-28T21:43:34.269Z,5.55
2023-01-28T21:46:01.382Z,5.07
2023-01-28T21:48:28.477Z,5.22
2023-01-28T21:51:13.805Z,5.55
2023-01-28T21:53:41.811Z,6.28
2023-01-28T21:56:09.794Z,5.82
2023-01-28T21:58:56.541Z,4.88
2023-01-28T22:01:23.515Z,5.20
2023-01-28T22:03:50.119Z,5.32
2023-01-28T22:06:19.273Z,5.50
2023-01-28T22:08:45.831Z,6.13
2023-01-28T22:11:12.499Z,6.68
2023-01-28T22:13:39.455Z,5.88
2023-01-28T22:16:06.542Z,5.88
2023-01-28T22:18:33.287Z,7.03
2023-01-28T22:21:01.484Z,6.72
2023-01-28T22:23:28.544Z,5.25
2023-01-28T22:25:56.594Z,5.85
2023-01-28T22:28:24.375Z,6.93
2023-01-28T22:30:53.343Z,6.65
2023-01-28T22:33:20.882Z,6.47
2023-01-28T22:35:48.328Z,6.18
2023-01-28T22:38:15.073Z,6.47
2023-01-28T22:40:41.837Z,6.13
2023-01-28T22:43:08.434Z,6.00
2023-01-28T22:45:35.016Z,6.13
2023-01-28T22:48:01.610Z,6.20
2023-01-28T22:50:28.175Z,5.78
2023-01-28T22:52:54.752Z,7.35
2023-01-28T22:55:21.360Z,10.30
2023-01-28T22:57:47.984Z,9.43
2023-01-28T23:00:17.447Z,7.10
2023-01-28T23:02:44.250Z,6.00
2023-01-28T23:05:11.284Z,5.22
2023-01-28T23:07:38.063Z,6.45
2023-01-28T23:10:05.927Z,5.82
2023-01-28T23:12:32.510Z,5.28
2023-01-28T23:15:17.413Z,6.43
2023-01-28T23:18:02.765Z,5.47
2023-01-28T23:21:04.677Z,6.50
2023-01-28T23:23:49.754Z,5.22
2023-01-28T23:26:16.283Z,5.57
2023-01-28T23:28:42.860Z,5.57
2023-01-28T23:31:09.574Z,5.65
2023-01-28T23:33:36.960Z,5.53
2023-01-28T23:36:03.703Z,5.78
2023-01-28T23:38:30.301Z,6.18
2023-01-28T23:40:56.822Z,6.10
2023-01-28T23:43:23.387Z,5.18
2023-01-28T23:45:49.937Z,6.18
2023-01-28T23:48:16.460Z,5.32
2023-01-28T23:50:43.019Z,6.10
2023-01-28T23:53:13.220Z,4.93
2023-01-28T23:55:40.620Z,4.97
2023-01-28T23:58:07.373Z,5.57
